sensor_id;sensor_type;location;lat;lon;timestamp;pressure;altitude;pressure_sealevel;temperature;humidity
44198;BME280;30157;55.512;37.764;2023-07-22T00:00:51;99349.13;;;14.25;70.09
44198;BME280;30157;55.512;37.764;2023-07-22T00:03:17;99352.63;;;14.26;70.01
44198;BME280;30157;55.512;37.764;2023-07-22T00:05:43;99300.38;;;13.96;70.01
44198;BME280;30157;55.512;37.764;2023-07-22T00:08:09;99343.28;;;14.17;70.03
44198;BME280;30157;55.512;37.764;2023-07-22T00:10:35;99328.88;;;14.02;70.03
44198;BME280;30157;55.512;37.764;2023-07-22T00:13:01;99306.72;;;13.86;70.16
44198;BME280;30157;55.512;37.764;2023-07-22T00:15:27;99347.97;;;14.04;70.30
44198;BME280;30157;55.512;37.764;2023-07-22T00:17:52;99270.94;;;13.58;70.31
44198;BME280;30157;55.512;37.764;2023-07-22T00:20:18;99351.44;;;14.05;70.44
44198;BME280;30157;55.512;37.764;2023-07-22T00:22:45;99331.22;;;13.80;70.91
44198;BME280;30157;55.512;37.764;2023-07-22T00:25:11;99357.88;;;13.91;71.11
44198;BME280;30157;55.512;37.764;2023-07-22T00:27:38;99291.97;;;13.50;71.08
44198;BME280;30157;55.512;37.764;2023-07-22T00:30:06;99337.28;;;13.81;71.08
44198;BME280;30157;55.512;37.764;2023-07-22T00:32:33;99317.47;;;13.73;71.27
44198;BME280;30157;55.512;37.764;2023-07-22T00:34:59;99279.94;;;13.44;71.57
44198;BME280;30157;55.512;37.764;2023-07-22T00:37:25;99355.31;;;13.90;71.50
44198;BME280;30157;55.512;37.764;2023-07-22T00:39:51;99357.16;;;13.85;71.44
44198;BME280;30157;55.512;37.764;2023-07-22T00:42:17;99130.41;;;12.43;71.15
44198;BME280;30157;55.512;37.764;2023-07-22T00:44:42;99363.22;;;13.87;71.47
44198;BME280;30157;55.512;37.764;2023-07-22T00:47:09;99293.06;;;13.41;71.54
44198;BME280;30157;55.512;37.764;2023-07-22T00:49:35;99361.59;;;13.83;71.54
44198;BME280;30157;55.512;37.764;2023-07-22T00:52:02;99334.44;;;13.55;71.69
44198;BME280;30157;55.512;37.764;2023-07-22T00:54:29;99366.31;;;13.67;72.02
44198;BME280;30157;55.512;37.764;2023-07-22T00:56:56;99300.59;;;13.16;72.50
44198;BME280;30157;55.512;37.764;2023-07-22T00:59:22;99370.22;;;13.49;72.50
44198;BME280;30157;55.512;37.764;2023-07-22T01:01:47;99362.56;;;13.42;72.84
44198;BME280;30157;55.512;37.764;2023-07-22T01:04:14;99367.66;;;13.47;73.13
44198;BME280;30157;55.512;37.764;2023-07-22T01:06:43;99374.81;;;13.39;73.30
44198;BME280;30157;55.512;37.764;2023-07-22T01:09:10;99374.00;;;13.37;73.52
44198;BME280;30157;55.512;37.764;2023-07-22T01:11:36;99338.00;;;13.14;73.43
44198;BME280;30157;55.512;37.764;2023-07-22T01:14:02;99291.06;;;12.76;73.49
44198;BME280;30157;55.512;37.764;2023-07-22T01:16:29;99379.72;;;13.12;73.87
44198;BME280;30157;55.512;37.764;2023-07-22T01:18:56;99328.44;;;12.73;74.43
44198;BME280;30157;55.512;37.764;2023-07-22T01:21:23;99380.03;;;12.98;74.76
44198;BME280;30157;55.512;37.764;2023-07-22T01:23:49;99387.84;;;12.98;74.79
44198;BME280;30157;55.512;37.764;2023-07-22T01:26:16;99386.84;;;13.04;74.68
44198;BME280;30157;55.512;37.764;2023-07-22T01:28:43;99356.81;;;12.87;74.78
44198;BME280;30157;55.512;37.764;2023-07-22T01:31:09;99382.63;;;12.98;74.82
44198;BME280;30157;55.512;37.764;2023-07-22T01:33:35;99391.94;;;13.08;74.56
44198;BME280;30157;55.512;37.764;2023-07-22T01:36:02;99367.97;;;12.94;74.55
44198;BME280;30157;55.512;37.764;2023-07-22T01:38:28;99326.56;;;12.80;74.71
44198;BME280;30157;55.512;37.764;2023-07-22T01:40:55;99326.50;;;12.85;74.17
44198;BME280;30157;55.512;37.764;2023-07-22T01:43:21;99382.44;;;13.07;74.31
44198;BME280;30157;55.512;37.764;2023-07-22T01:45:47;99373.28;;;12.88;74.70
44198;BME280;30157;55.512;37.764;2023-07-22T01:48:13;99408.53;;;13.04;74.83
44198;BME280;30157;55.512;37.764;2023-07-22T01:50:39;99408.56;;;13.03;74.89
44198;BME280;30157;55.512;37.764;2023-07-22T01:53:04;99395.47;;;13.07;74.56
44198;BME280;30157;55.512;37.764;2023-07-22T01:55:31;99412.75;;;13.11;74.63
44198;BME280;30157;55.512;37.764;2023-07-22T01:57:58;99385.31;;;12.93;74.59
44198;BME280;30157;55.512;37.764;2023-07-22T02:00:24;99376.72;;;12.90;74.85
44198;BME280;30157;55.512;37.764;2023-07-22T02:02:50;99399.84;;;13.05;74.82
44198;BME280;30157;55.512;37.764;2023-07-22T02:05:16;99397.06;;;13.13;74.73
44198;BME280;30157;55.512;37.764;2023-07-22T02:07:42;99403.59;;;13.31;74.34
44198;BME280;30157;55.512;37.764;2023-07-22T02:10:08;99344.72;;;12.85;74.24
44198;BME280;30157;55.512;37.764;2023-07-22T02:12:37;99411.75;;;13.17;74.71
44198;BME280;30157;55.512;37.764;2023-07-22T02:15:04;99386.97;;;12.99;74.85
44198;BME280;30157;55.512;37.764;2023-07-22T02:17:35;99410.44;;;12.96;75.29
44198;BME280;30157;55.512;37.764;2023-07-22T02:20:20;99400.50;;;12.73;75.88
44198;BME280;30157;55.512;37.764;2023-07-22T02:22:46;99361.78;;;12.56;76.09
44198;BME280;30157;55.512;37.764;2023-07-22T02:25:11;99367.84;;;12.58;76.23
44198;BME280;30157;55.512;37.764;2023-07-22T02:27:37;99397.47;;;12.94;75.88
44198;BME280;30157;55.512;37.764;2023-07-22T02:30:06;99403.44;;;13.00;75.91
44198;BME280;30157;55.512;37.764;2023-07-22T02:32:38;99425.75;;;13.11;75.63
44198;BME280;30157;55.512;37.764;2023-07-22T02:35:06;99377.84;;;12.78;75.92
44198;BME280;30157;55.512;37.764;2023-07-22T02:37:33;99344.22;;;12.67;76.09
44198;BME280;30157;55.512;37.764;2023-07-22T02:39:59;99427.44;;;13.14;76.01
44198;BME280;30157;55.512;37.764;2023-07-22T02:42:24;99421.38;;;13.14;75.87
44198;BME280;30157;55.512;37.764;2023-07-22T02:44:50;99357.63;;;12.89;75.59
44198;BME280;30157;55.512;37.764;2023-07-22T02:47:16;99419.78;;;13.06;76.33
44198;BME280;30157;55.512;37.764;2023-07-22T02:49:41;99423.84;;;13.20;76.57
44198;BME280;30157;55.512;37.764;2023-07-22T02:52:07;99430.63;;;13.27;76.02
44198;BME280;30157;55.512;37.764;2023-07-22T02:54:40;99427.91;;;13.33;75.87
44198;BME280;30157;55.512;37.764;2023-07-22T02:57:06;99409.69;;;13.32;75.49
44198;BME280;30157;55.512;37.764;2023-07-22T02:59:32;99306.56;;;12.82;74.85
44198;BME280;30157;55.512;37.764;2023-07-22T03:01:58;99408.84;;;13.69;74.45
44198;BME280;30157;55.512;37.764;2023-07-22T03:04:24;99398.03;;;13.86;73.39
44198;BME280;30157;55.512;37.764;2023-07-22T03:06:50;99345.19;;;13.77;72.60
44198;BME280;30157;55.512;37.764;2023-07-22T03:09:16;99422.19;;;14.60;71.81
44198;BME280;30157;55.512;37.764;2023-07-22T03:11:42;99417.84;;;14.92;70.97
44198;BME280;30157;55.512;37.764;2023-07-22T03:14:07;99386.22;;;15.00;70.40
44198;BME280;30157;55.512;37.764;2023-07-22T03:16:34;99425.81;;;15.45;69.78
44198;BME280;30157;55.512;37.764;2023-07-22T03:19:00;99425.84;;;15.72;69.01
44198;BME280;30157;55.512;37.764;2023-07-22T03:21:25;99411.53;;;15.84;68.65
44198;BME280;30157;55.512;37.764;2023-07-22T03:23:51;99423.00;;;16.07;68.33
44198;BME280;30157;55.512;37.764;2023-07-22T03:26:17;99414.97;;;16.13;67.59
44198;BME280;30157;55.512;37.764;2023-07-22T03:28:42;99432.75;;;16.54;67.64
44198;BME280;30157;55.512;37.764;2023-07-22T03:31:08;99435.78;;;16.67;66.65
44198;BME280;30157;55.512;37.764;2023-07-22T03:33:34;99418.13;;;16.72;66.00
44198;BME280;30157;55.512;37.764;2023-07-22T03:36:00;99433.50;;;17.06;64.46
44198;BME280;30157;55.512;37.764;2023-07-22T03:38:26;99421.63;;;16.96;64.55
44198;BME280;30157;55.512;37.764;2023-07-22T03:40:52;99402.22;;;17.02;63.88
44198;BME280;30157;55.512;37.764;2023-07-22T03:43:21;99420.72;;;17.21;63.74
44198;BME280;30157;55.512;37.764;2023-07-22T03:45:46;99413.56;;;17.24;63.50
44198;BME280;30157;55.512;37.764;2023-07-22T03:48:12;99381.47;;;16.95;63.19
44198;BME280;30157;55.512;37.764;2023-07-22T03:50:38;99424.66;;;17.31;63.21
44198;BME280;30157;55.512;37.764;2023-07-22T03:53:04;99434.69;;;17.66;62.14
44198;BME280;30157;55.512;37.764;2023-07-22T03:55:29;99425.78;;;17.70;61.24
44198;BME280;30157;55.512;37.764;2023-07-22T03:57:55;99443.16;;;17.96;61.46
44198;BME280;30157;55.512;37.764;2023-07-22T04:00:21;99451.03;;;18.17;60.32
44198;BME280;30157;55.512;37.764;2023-07-22T04:02:47;99402.81;;;17.97;60.10
44198;BME280;30157;55.512;37.764;2023-07-22T04:05:13;99446.69;;;18.57;59.50
44198;BME280;30157;55.512;37.764;2023-07-22T04:07:39;99431.53;;;18.63;58.30
44198;BME280;30157;55.512;37.764;2023-07-22T04:10:05;99438.41;;;18.45;58.33
44198;BME280;30157;55.512;37.764;2023-07-22T04:12:32;99438.31;;;18.49;57.94
44198;BME280;30157;55.512;37.764;2023-07-22T04:14:58;99430.03;;;18.58;57.68
44198;BME280;30157;55.512;37.764;2023-07-22T04:17:23;99422.94;;;18.79;57.38
44198;BME280;30157;55.512;37.764;2023-07-22T04:19:51;99430.25;;;19.12;56.92
44198;BME280;30157;55.512;37.764;2023-07-22T04:22:18;99445.19;;;19.30;55.50
44198;BME280;30157;55.512;37.764;2023-07-22T04:24:43;99430.00;;;19.55;55.64
44198;BME280;30157;55.512;37.764;2023-07-22T04:27:09;99328.41;;;19.33;54.71
44198;BME280;30157;55.512;37.764;2023-07-22T04:29:35;99417.00;;;19.69;54.33
44198;BME280;30157;55.512;37.764;2023-07-22T04:32:06;99394.25;;;19.68;53.97
44198;BME280;30157;55.512;37.764;2023-07-22T04:34:32;99406.94;;;19.77;53.43
44198;BME280;30157;55.512;37.764;2023-07-22T04:36:58;99434.28;;;20.29;53.32
44198;BME280;30157;55.512;37.764;2023-07-22T04:39:24;99366.94;;;20.06;52.87
44198;BME280;30157;55.512;37.764;2023-07-22T04:41:51;99428.81;;;20.67;52.18
44198;BME280;30157;55.512;37.764;2023-07-22T04:44:18;99442.72;;;20.71;51.23
44198;BME280;30157;55.512;37.764;2023-07-22T04:46:44;99388.22;;;20.36;52.24
44198;BME280;30157;55.512;37.764;2023-07-22T04:49:11;99447.13;;;20.70;52.07
44198;BME280;30157;55.512;37.764;2023-07-22T04:51:36;99410.75;;;20.59;51.57
44198;BME280;30157;55.512;37.764;2023-07-22T04:54:02;99453.16;;;21.38;51.01
44198;BME280;30157;55.512;37.764;2023-07-22T04:56:28;99430.44;;;21.67;50.35
44198;BME280;30157;55.512;37.764;2023-07-22T04:58:54;99430.84;;;21.75;49.26
44198;BME280;30157;55.512;37.764;2023-07-22T05:01:20;99448.72;;;21.86;48.73
44198;BME280;30157;55.512;37.764;2023-07-22T05:03:46;99448.72;;;21.86;48.80
44198;BME280;30157;55.512;37.764;2023-07-22T05:06:12;99461.03;;;22.18;48.04
44198;BME280;30157;55.512;37.764;2023-07-22T05:08:38;99458.41;;;22.32;47.79
44198;BME280;30157;55.512;37.764;2023-07-22T05:11:04;99404.66;;;22.47;47.31
44198;BME280;30157;55.512;37.764;2023-07-22T05:13:30;99443.38;;;22.77;46.78
44198;BME280;30157;55.512;37.764;2023-07-22T05:15:55;99443.94;;;22.97;46.44
44198;BME280;30157;55.512;37.764;2023-07-22T05:18:21;99436.38;;;22.76;46.11
44198;BME280;30157;55.512;37.764;2023-07-22T05:20:47;99456.50;;;22.79;45.99
44198;BME280;30157;55.512;37.764;2023-07-22T05:23:13;99436.38;;;22.76;45.80
44198;BME280;30157;55.512;37.764;2023-07-22T05:25:39;99444.78;;;23.12;45.31
44198;BME280;30157;55.512;37.764;2023-07-22T05:28:04;99405.59;;;23.19;44.55
44198;BME280;30157;55.512;37.764;2023-07-22T05:30:30;99436.88;;;23.54;44.69
44198;BME280;30157;55.512;37.764;2023-07-22T05:32:56;99412.56;;;23.61;43.98
44198;BME280;30157;55.512;37.764;2023-07-22T05:35:21;99438.84;;;23.64;44.09
44198;BME280;30157;55.512;37.764;2023-07-22T05:37:48;99417.88;;;23.47;44.35
44198;BME280;30157;55.512;37.764;2023-07-22T05:40:14;99389.56;;;23.62;43.90
44198;BME280;30157;55.512;37.764;2023-07-22T05:42:40;99424.75;;;24.04;42.93
44198;BME280;30157;55.512;37.764;2023-07-22T05:45:06;99412.81;;;23.84;42.91
44198;BME280;30157;55.512;37.764;2023-07-22T05:47:33;99422.03;;;24.19;42.32
44198;BME280;30157;55.512;37.764;2023-07-22T05:49:59;99420.59;;;24.79;41.37
44198;BME280;30157;55.512;37.764;2023-07-22T05:52:25;99423.00;;;25.45;39.88
44198;BME280;30157;55.512;37.764;2023-07-22T05:54:51;99403.91;;;25.64;39.69
44198;BME280;30157;55.512;37.764;2023-07-22T05:57:17;99346.00;;;25.56;39.67
44198;BME280;30157;55.512;37.764;2023-07-22T05:59:42;99426.06;;;25.76;38.67
44198;BME280;30157;55.512;37.764;2023-07-22T06:02:08;99424.34;;;25.99;38.86
44198;BME280;30157;55.512;37.764;2023-07-22T06:04:36;99389.72;;;26.12;38.19
44198;BME280;30157;55.512;37.764;2023-07-22T06:07:02;99413.22;;;26.52;37.30
44198;BME280;30157;55.512;37.764;2023-07-22T06:09:27;99428.59;;;26.48;37.42
44198;BME280;30157;55.512;37.764;2023-07-22T06:11:53;99418.19;;;25.98;38.41
44198;BME280;30157;55.512;37.764;2023-07-22T06:14:19;99427.09;;;25.97;37.87
44198;BME280;30157;55.512;37.764;2023-07-22T06:16:45;99375.91;;;25.71;37.42
44198;BME280;30157;55.512;37.764;2023-07-22T06:19:10;99377.66;;;26.30;37.74
44198;BME280;30157;55.512;37.764;2023-07-22T06:21:36;99396.16;;;26.55;36.98
44198;BME280;30157;55.512;37.764;2023-07-22T06:24:02;99435.91;;;26.80;36.81
44198;BME280;30157;55.512;37.764;2023-07-22T06:26:28;99427.06;;;27.03;36.80
44198;BME280;30157;55.512;37.764;2023-07-22T06:28:53;99407.06;;;27.08;36.05
44198;BME280;30157;55.512;37.764;2023-07-22T06:31:19;99415.22;;;26.73;35.55
44198;BME280;30157;55.512;37.764;2023-07-22T06:33:45;99302.53;;;25.22;36.89
44198;BME280;30157;55.512;37.764;2023-07-22T06:36:11;99407.53;;;26.34;36.50
44198;BME280;30157;55.512;37.764;2023-07-22T06:38:36;99396.91;;;26.57;36.41
44198;BME280;30157;55.512;37.764;2023-07-22T06:41:02;99424.69;;;26.30;36.75
44198;BME280;30157;55.512;37.764;2023-07-22T06:43:28;99408.13;;;25.91;37.10
44198;BME280;30157;55.512;37.764;2023-07-22T06:45:54;99365.53;;;25.79;36.67
44198;BME280;30157;55.512;37.764;2023-07-22T06:48:20;99430.00;;;26.19;36.67
44198;BME280;30157;55.512;37.764;2023-07-22T06:50:49;99419.00;;;25.88;36.22
44198;BME280;30157;55.512;37.764;2023-07-22T06:53:15;99430.47;;;26.24;36.47
44198;BME280;30157;55.512;37.764;2023-07-22T06:55:51;99380.41;;;25.46;37.47
44198;BME280;30157;55.512;37.764;2023-07-22T06:58:18;99355.50;;;25.72;36.58
44198;BME280;30157;55.512;37.764;2023-07-22T07:00:43;99353.91;;;26.05;36.31
44198;BME280;30157;55.512;37.764;2023-07-22T07:03:09;99408.75;;;26.53;34.93
44198;BME280;30157;55.512;37.764;2023-07-22T07:05:35;99421.44;;;26.49;34.78
44198;BME280;30157;55.512;37.764;2023-07-22T07:08:01;99409.84;;;26.50;34.64
44198;BME280;30157;55.512;37.764;2023-07-22T07:10:27;99402.63;;;26.86;34.40
44198;BME280;30157;55.512;37.764;2023-07-22T07:12:53;99375.13;;;27.20;33.52
44198;BME280;30157;55.512;37.764;2023-07-22T07:15:19;99418.38;;;28.21;32.28
44198;BME280;30157;55.512;37.764;2023-07-22T07:17:44;99391.25;;;28.15;32.07
44198;BME280;30157;55.512;37.764;2023-07-22T07:20:10;99417.38;;;28.43;31.98
44198;BME280;30157;55.512;37.764;2023-07-22T07:22:36;99418.81;;;27.06;34.30
44198;BME280;30157;55.512;37.764;2023-07-22T07:25:02;99403.19;;;26.56;35.26
44198;BME280;30157;55.512;37.764;2023-07-22T07:27:29;99417.63;;;27.65;34.14
44198;BME280;30157;55.512;37.764;2023-07-22T07:29:55;99423.81;;;28.40;32.37
44198;BME280;30157;55.512;37.764;2023-07-22T07:32:22;99417.53;;;29.13;31.26
44198;BME280;30157;55.512;37.764;2023-07-22T07:34:49;99351.47;;;29.25;30.07
44198;BME280;30157;55.512;37.764;2023-07-22T07:37:15;99320.56;;;27.46;30.89
44198;BME280;30157;55.512;37.764;2023-07-22T07:39:41;99407.84;;;27.87;32.11
44198;BME280;30157;55.512;37.764;2023-07-22T07:42:06;99428.25;;;28.30;31.02
44198;BME280;30157;55.512;37.764;2023-07-22T07:44:32;99418.28;;;28.11;31.48
44198;BME280;30157;55.512;37.764;2023-07-22T07:46:58;99421.63;;;27.92;31.82
44198;BME280;30157;55.512;37.764;2023-07-22T07:49:24;99397.25;;;27.20;32.33
44198;BME280;30157;55.512;37.764;2023-07-22T07:51:49;99431.47;;;26.45;34.22
44198;BME280;30157;55.512;37.764;2023-07-22T07:54:15;99399.00;;;27.54;32.82
44198;BME280;30157;55.512;37.764;2023-07-22T07:56:41;99419.38;;;28.72;31.38
44198;BME280;30157;55.512;37.764;2023-07-22T07:59:06;99417.22;;;28.44;30.52
44198;BME280;30157;55.512;37.764;2023-07-22T08:01:34;99348.59;;;28.25;30.37
44198;BME280;30157;55.512;37.764;2023-07-22T08:04:02;99420.25;;;28.82;29.87
44198;BME280;30157;55.512;37.764;2023-07-22T08:06:28;99352.94;;;28.78;29.13
44198;BME280;30157;55.512;37.764;2023-07-22T08:08:54;99408.78;;;28.39;29.26
44198;BME280;30157;55.512;37.764;2023-07-22T08:11:20;99351.06;;;27.96;30.72
44198;BME280;30157;55.512;37.764;2023-07-22T08:13:45;99369.69;;;28.59;30.77
44198;BME280;30157;55.512;37.764;2023-07-22T08:16:13;99401.00;;;28.78;29.70
44198;BME280;30157;55.512;37.764;2023-07-22T08:18:39;99360.69;;;28.91;29.01
44198;BME280;30157;55.512;37.764;2023-07-22T08:21:06;99390.19;;;29.30;29.39
44198;BME280;30157;55.512;37.764;2023-07-22T08:23:33;99396.13;;;29.34;28.39
44198;BME280;30157;55.512;37.764;2023-07-22T08:25:59;99423.66;;;29.35;29.44
44198;BME280;30157;55.512;37.764;2023-07-22T08:28:25;99410.34;;;29.44;28.39
44198;BME280;30157;55.512;37.764;2023-07-22T08:30:54;99401.28;;;28.85;29.46
44198;BME280;30157;55.512;37.764;2023-07-22T08:33:20;99381.06;;;27.88;30.63
44198;BME280;30157;55.512;37.764;2023-07-22T08:35:45;99421.34;;;26.62;32.03
44198;BME280;30157;55.512;37.764;2023-07-22T08:38:13;99282.81;;;25.95;33.08
44198;BME280;30157;55.512;37.764;2023-07-22T08:40:40;99391.81;;;26.42;32.56
44198;BME280;30157;55.512;37.764;2023-07-22T08:43:08;99430.91;;;27.21;31.57
44198;BME280;30157;55.512;37.764;2023-07-22T08:45:36;99427.53;;;28.28;30.24
44198;BME280;30157;55.512;37.764;2023-07-22T08:48:07;99438.88;;;29.34;29.46
44198;BME280;30157;55.512;37.764;2023-07-22T08:53:10;99440.56;;;26.43;33.70
44198;BME280;30157;55.512;37.764;2023-07-22T08:55:37;99410.81;;;25.42;34.64
44198;BME280;30157;55.512;37.764;2023-07-22T08:58:08;99431.41;;;25.02;36.11
44198;BME280;30157;55.512;37.764;2023-07-22T09:00:35;99386.50;;;24.86;36.69
44198;BME280;30157;55.512;37.764;2023-07-22T09:03:02;99433.84;;;27.07;34.46
44198;BME280;30157;55.512;37.764;2023-07-22T09:05:28;99417.47;;;26.55;34.72
44198;BME280;30157;55.512;37.764;2023-07-22T09:07:56;99415.97;;;25.57;35.18
44198;BME280;30157;55.512;37.764;2023-07-22T09:10:24;99435.22;;;24.59;36.53
44198;BME280;30157;55.512;37.764;2023-07-22T09:12:51;99383.25;;;25.92;34.64
44198;BME280;30157;55.512;37.764;2023-07-22T09:15:17;99415.78;;;26.54;34.00
44198;BME280;30157;55.512;37.764;2023-07-22T09:17:44;99407.25;;;26.73;34.03
44198;BME280;30157;55.512;37.764;2023-07-22T09:20:12;99413.41;;;28.37;32.13
44198;BME280;30157;55.512;37.764;2023-07-22T09:22:43;99404.72;;;29.77;29.72
44198;BME280;30157;55.512;37.764;2023-07-22T09:25:14;99418.03;;;29.28;30.44
44198;BME280;30157;55.512;37.764;2023-07-22T09:27:41;99394.41;;;29.33;29.97
44198;BME280;30157;55.512;37.764;2023-07-22T09:30:28;99424.28;;;29.67;28.68
44198;BME280;30157;55.512;37.764;2023-07-22T09:33:01;99413.28;;;29.80;28.14
44198;BME280;30157;55.512;37.764;2023-07-22T09:38:06;99416.94;;;29.70;28.43
44198;BME280;30157;55.512;37.764;2023-07-22T09:40:32;99425.09;;;30.37;28.06
44198;BME280;30157;55.512;37.764;2023-07-22T09:43:01;99401.06;;;29.68;27.97
44198;BME280;30157;55.512;37.764;2023-07-22T09:45:31;99406.19;;;28.07;28.70
44198;BME280;30157;55.512;37.764;2023-07-22T09:47:58;99427.63;;;28.16;29.67
44198;BME280;30157;55.512;37.764;2023-07-22T09:50:26;99425.06;;;28.36;30.10
44198;BME280;30157;55.512;37.764;2023-07-22T09:52:56;99430.31;;;26.95;31.55
44198;BME280;30157;55.512;37.764;2023-07-22T09:55:25;99430.06;;;25.81;34.03
44198;BME280;30157;55.512;37.764;2023-07-22T09:58:04;99405.09;;;25.23;34.55
44198;BME280;30157;55.512;37.764;2023-07-22T10:00:36;99442.00;;;24.89;35.34
44198;BME280;30157;55.512;37.764;2023-07-22T10:03:03;99452.19;;;24.56;35.89
44198;BME280;30157;55.512;37.764;2023-07-22T10:05:33;99434.59;;;24.81;35.64
44198;BME280;30157;55.512;37.764;2023-07-22T10:08:00;99378.56;;;24.73;35.30
44198;BME280;30157;55.512;37.764;2023-07-22T10:10:34;99249.41;;;23.72;34.75
44198;BME280;30157;55.512;37.764;2023-07-22T10:13:01;99435.09;;;24.35;35.56
44198;BME280;30157;55.512;37.764;2023-07-22T10:15:32;99435.34;;;25.46;33.83
44198;BME280;30157;55.512;37.764;2023-07-22T10:18:04;99414.09;;;27.09;31.90
44198;BME280;30157;55.512;37.764;2023-07-22T10:20:33;99387.25;;;27.01;30.94
44198;BME280;30157;55.512;37.764;2023-07-22T10:23:02;99430.00;;;28.41;29.85
44198;BME280;30157;55.512;37.764;2023-07-22T10:25:30;99432.03;;;26.96;31.59
44198;BME280;30157;55.512;37.764;2023-07-22T10:27:55;99415.47;;;25.63;33.27
44198;BME280;30157;55.512;37.764;2023-07-22T10:30:21;99399.31;;;24.92;33.36
44198;BME280;30157;55.512;37.764;2023-07-22T10:32:49;99446.06;;;24.81;35.24
44198;BME280;30157;55.512;37.764;2023-07-22T10:38:07;99393.97;;;26.14;32.35
44198;BME280;30157;55.512;37.764;2023-07-22T10:40:50;99451.16;;;25.47;33.74
44198;BME280;30157;55.512;37.764;2023-07-22T10:43:18;99444.13;;;24.96;34.96
44198;BME280;30157;55.512;37.764;2023-07-22T10:45:50;99409.56;;;24.46;35.89
44198;BME280;30157;55.512;37.764;2023-07-22T10:48:17;99434.88;;;24.25;36.53
44198;BME280;30157;55.512;37.764;2023-07-22T10:50:46;99448.53;;;24.19;36.99
44198;BME280;30157;55.512;37.764;2023-07-22T10:53:21;99427.38;;;26.64;32.95
44198;BME280;30157;55.512;37.764;2023-07-22T10:56:12;99439.22;;;28.79;30.77
44198;BME280;30157;55.512;37.764;2023-07-22T11:11:54;99435.06;;;30.54;25.94
44198;BME280;30157;55.512;37.764;2023-07-22T11:14:23;99433.97;;;30.47;26.30
44198;BME280;30157;55.512;37.764;2023-07-22T11:16:50;99431.47;;;28.76;27.89
44198;BME280;30157;55.512;37.764;2023-07-22T11:19:17;99455.47;;;29.38;27.48
44198;BME280;30157;55.512;37.764;2023-07-22T11:21:45;99337.19;;;28.85;27.81
44198;BME280;30157;55.512;37.764;2023-07-22T11:24:11;99467.84;;;26.80;31.26
44198;BME280;30157;55.512;37.764;2023-07-22T11:26:37;99468.81;;;25.73;32.80
44198;BME280;30157;55.512;37.764;2023-07-22T11:29:05;99458.13;;;24.98;34.17
44198;BME280;30157;55.512;37.764;2023-07-22T11:31:36;99446.19;;;24.67;34.66
44198;BME280;30157;55.512;37.764;2023-07-22T11:34:03;99432.66;;;24.44;34.86
44198;BME280;30157;55.512;37.764;2023-07-22T11:36:30;99470.13;;;24.40;35.68
44198;BME280;30157;55.512;37.764;2023-07-22T11:39:06;99453.56;;;23.96;35.52
44198;BME280;30157;55.512;37.764;2023-07-22T11:41:33;99437.34;;;23.60;36.01
44198;BME280;30157;55.512;37.764;2023-07-22T11:43:59;99279.72;;;22.29;36.77
44198;BME280;30157;55.512;37.764;2023-07-22T11:46:26;99480.63;;;23.32;37.53
44198;BME280;30157;55.512;37.764;2023-07-22T11:48:53;99467.75;;;23.68;37.26
44198;BME280;30157;55.512;37.764;2023-07-22T11:51:22;99411.03;;;25.39;33.43
44198;BME280;30157;55.512;37.764;2023-07-22T11:53:49;99400.88;;;27.42;29.56
44198;BME280;30157;55.512;37.764;2023-07-22T11:56:23;99458.16;;;26.91;30.40
44198;BME280;30157;55.512;37.764;2023-07-22T11:58:53;99453.63;;;25.25;32.43
44198;BME280;30157;55.512;37.764;2023-07-22T12:01:19;99430.91;;;24.71;33.47
44198;BME280;30157;55.512;37.764;2023-07-22T12:03:46;99414.28;;;26.27;31.95
44198;BME280;30157;55.512;37.764;2023-07-22T12:06:12;99455.44;;;28.66;28.63
44198;BME280;30157;55.512;37.764;2023-07-22T12:08:46;99452.41;;;29.81;27.86
44198;BME280;30157;55.512;37.764;2023-07-22T12:11:20;99436.81;;;30.06;27.03
44198;BME280;30157;55.512;37.764;2023-07-22T12:16:34;99370.41;;;27.56;28.91
44198;BME280;30157;55.512;37.764;2023-07-22T12:19:01;99438.38;;;27.82;29.70
44198;BME280;30157;55.512;37.764;2023-07-22T12:21:27;99431.13;;;28.17;29.41
44198;BME280;30157;55.512;37.764;2023-07-22T12:23:53;99421.59;;;29.07;28.27
44198;BME280;30157;55.512;37.764;2023-07-22T12:26:18;99367.09;;;29.20;27.62
44198;BME280;30157;55.512;37.764;2023-07-22T12:28:44;99421.59;;;29.67;27.37
44198;BME280;30157;55.512;37.764;2023-07-22T12:31:10;99409.38;;;28.64;26.59
44198;BME280;30157;55.512;37.764;2023-07-22T12:33:35;99423.84;;;27.31;28.57
44198;BME280;30157;55.512;37.764;2023-07-22T12:36:01;99423.66;;;26.55;30.56
44198;BME280;30157;55.512;37.764;2023-07-22T12:38:27;99392.59;;;25.73;31.12
44198;BME280;30157;55.512;37.764;2023-07-22T12:40:53;99398.34;;;25.67;32.14
44198;BME280;30157;55.512;37.764;2023-07-22T12:43:19;99408.19;;;25.54;32.79
44198;BME280;30157;55.512;37.764;2023-07-22T12:45:44;99398.25;;;25.07;33.54
44198;BME280;30157;55.512;37.764;2023-07-22T12:48:10;99384.03;;;25.32;33.33
44198;BME280;30157;55.512;37.764;2023-07-22T12:50:36;99399.28;;;25.18;33.44
44198;BME280;30157;55.512;37.764;2023-07-22T12:53:02;99404.38;;;25.21;34.01
44198;BME280;30157;55.512;37.764;2023-07-22T12:55:28;99340.22;;;24.90;33.25
44198;BME280;30157;55.512;37.764;2023-07-22T12:57:54;99325.06;;;24.79;32.61
44198;BME280;30157;55.512;37.764;2023-07-22T13:00:20;99416.88;;;25.31;32.77
44198;BME280;30157;55.512;37.764;2023-07-22T13:02:47;99403.09;;;25.13;32.75
44198;BME280;30157;55.512;37.764;2023-07-22T13:05:13;99420.53;;;25.18;33.08
44198;BME280;30157;55.512;37.764;2023-07-22T13:07:39;99417.38;;;24.99;33.06
44198;BME280;30157;55.512;37.764;2023-07-22T13:10:10;99409.53;;;24.85;32.55
44198;BME280;30157;55.512;37.764;2023-07-22T13:12:46;99410.69;;;24.29;33.32